sensor_id;sensor_type;location;lat;lon;timestamp;temperature;humidity
3794;DHT22;1912;51.358;12.282;2022-10-17T00:01:45;15.40;1.00
3794;DHT22;1912;51.358;12.282;2022-10-17T00:04:10;15.40;1.00
3794;DHT22;1912;51.358;12.282;2022-10-17T00:06:36;15.50;1.00
3794;DHT22;1912;51.358;12.282;2022-10-17T00:09:02;15.40;1.00
3794;DHT22;1912;51.358;12.282;2022-10-17T00:11:28;15.50;1.00
3794;DHT22;1912;51.358;12.282;2022-10-17T00:13:55;15.50;1.00
3794;DHT22;1912;51.358;12.282;2022-10-17T00:16:29;15.50;1.00
3794;DHT22;1912;51.358;12.282;2022-10-17T00:18:57;15.40;1.00
3794;DHT22;1912;51.358;12.282;2022-10-17T00:21:24;15.50;1.00
3794;DHT22;1912;51.358;12.282;2022-10-17T00:23:50;15.60;1.00
3794;DHT22;1912;51.358;12.282;2022-10-17T00:26:17;15.50;1.00
3794;DHT22;1912;51.358;12.282;2022-10-17T00:28:49;15.60;1.00
3794;DHT22;1912;51.358;12.282;2022-10-17T00:31:17;15.60;1.00
3794;DHT22;1912;51.358;12.282;2022-10-17T00:33:44;15.60;1.00
3794;DHT22;1912;51.358;12.282;2022-10-17T00:36:16;15.60;1.00
3794;DHT22;1912;51.358;12.282;2022-10-17T00:38:46;15.60;1.00
3794;DHT22;1912;51.358;12.282;2022-10-17T00:41:14;15.70;1.00
3794;DHT22;1912;51.358;12.282;2022-10-17T00:43:49;15.70;1.00
3794;DHT22;1912;51.358;12.282;2022-10-17T00:46:19;15.70;1.00
3794;DHT22;1912;51.358;12.282;2022-10-17T00:48:45;15.80;1.00
3794;DHT22;1912;51.358;12.282;2022-10-17T00:51:12;15.70;1.00
3794;DHT22;1912;51.358;12.282;2022-10-17T00:53:38;15.70;1.00
3794;DHT22;1912;51.358;12.282;2022-10-17T00:56:05;15.70;1.00
3794;DHT22;1912;51.358;12.282;2022-10-17T00:58:31;15.70;1.00
3794;DHT22;1912;51.358;12.282;2022-10-17T01:00:56;15.70;1.00
3794;DHT22;1912;51.358;12.282;2022-10-17T01:03:23;15.70;1.00
3794;DHT22;1912;51.358;12.282;2022-10-17T01:05:49;15.70;1.00
3794;DHT22;1912;51.358;12.282;2022-10-17T01:08:15;15.80;1.00
3794;DHT22;1912;51.358;12.282;2022-10-17T01:13:51;15.80;1.00
3794;DHT22;1912;51.358;12.282;2022-10-17T01:16:33;15.80;1.00
3794;DHT22;1912;51.358;12.282;2022-10-17T01:22:34;15.80;1.00
3794;DHT22;1912;51.358;12.282;2022-10-17T01:25:23;15.80;1.00
3794;DHT22;1912;51.358;12.282;2022-10-17T01:31:39;15.70;1.00
3794;DHT22;1912;51.358;12.282;2022-10-17T01:34:33;15.70;1.00
3794;DHT22;1912;51.358;12.282;2022-10-17T01:37:29;15.80;1.00
3794;DHT22;1912;51.358;12.282;2022-10-17T01:42:58;15.80;1.00
3794;DHT22;1912;51.358;12.282;2022-10-17T01:48:03;15.80;1.00
3794;DHT22;1912;51.358;12.282;2022-10-17T01:50:35;15.70;1.00
3794;DHT22;1912;51.358;12.282;2022-10-17T01:53:14;15.80;1.00
3794;DHT22;1912;51.358;12.282;2022-10-17T01:55:44;15.80;1.00
3794;DHT22;1912;51.358;12.282;2022-10-17T01:58:20;15.80;1.00
3794;DHT22;1912;51.358;12.282;2022-10-17T02:00:49;15.80;1.00
3794;DHT22;1912;51.358;12.282;2022-10-17T02:03:18;15.80;1.00
3794;DHT22;1912;51.358;12.282;2022-10-17T02:05:45;15.80;1.00
3794;DHT22;1912;51.358;12.282;2022-10-17T02:08:11;15.80;1.00
3794;DHT22;1912;51.358;12.282;2022-10-17T02:10:43;15.80;1.00
3794;DHT22;1912;51.358;12.282;2022-10-17T02:20:19;15.90;1.00
3794;DHT22;1912;51.358;12.282;2022-10-17T02:22:54;15.80;1.00
3794;DHT22;1912;51.358;12.282;2022-10-17T02:25:35;15.80;1.00
3794;DHT22;1912;51.358;12.282;2022-10-17T02:28:29;15.90;1.00
3794;DHT22;1912;51.358;12.282;2022-10-17T02:31:15;15.90;1.00
3794;DHT22;1912;51.358;12.282;2022-10-17T02:33:50;15.90;1.00
3794;DHT22;1912;51.358;12.282;2022-10-17T02:36:24;15.90;1.00
3794;DHT22;1912;51.358;12.282;2022-10-17T02:38:54;15.90;1.00
3794;DHT22;1912;51.358;12.282;2022-10-17T02:41:22;15.90;1.00
3794;DHT22;1912;51.358;12.282;2022-10-17T02:43:49;16.00;1.00
3794;DHT22;1912;51.358;12.282;2022-10-17T02:46:19;16.00;1.00
3794;DHT22;1912;51.358;12.282;2022-10-17T02:48:59;15.90;1.00
3794;DHT22;1912;51.358;12.282;2022-10-17T02:52:00;15.90;1.00
3794;DHT22;1912;51.358;12.282;2022-10-17T02:54:46;15.90;1.00
3794;DHT22;1912;51.358;12.282;2022-10-17T02:57:22;15.90;1.00
3794;DHT22;1912;51.358;12.282;2022-10-17T02:59:52;15.90;1.00
3794;DHT22;1912;51.358;12.282;2022-10-17T03:02:19;15.90;1.00
3794;DHT22;1912;51.358;12.282;2022-10-17T03:04:46;15.90;1.00
3794;DHT22;1912;51.358;12.282;2022-10-17T03:07:12;15.90;1.00
3794;DHT22;1912;51.358;12.282;2022-10-17T03:09:38;16.00;1.00
3794;DHT22;1912;51.358;12.282;2022-10-17T03:12:04;16.00;1.00
3794;DHT22;1912;51.358;12.282;2022-10-17T03:14:29;15.90;1.00
3794;DHT22;1912;51.358;12.282;2022-10-17T03:16:55;15.90;1.00
3794;DHT22;1912;51.358;12.282;2022-10-17T03:19:21;16.00;1.00
3794;DHT22;1912;51.358;12.282;2022-10-17T03:21:46;16.00;1.00
3794;DHT22;1912;51.358;12.282;2022-10-17T03:24:12;15.90;1.00
3794;DHT22;1912;51.358;12.282;2022-10-17T03:26:38;15.90;1.00
3794;DHT22;1912;51.358;12.282;2022-10-17T03:29:04;15.90;1.00
3794;DHT22;1912;51.358;12.282;2022-10-17T03:31:29;15.90;1.00
3794;DHT22;1912;51.358;12.282;2022-10-17T03:33:55;15.80;1.00
3794;DHT22;1912;51.358;12.282;2022-10-17T03:36:21;15.80;1.00
3794;DHT22;1912;51.358;12.282;2022-10-17T03:38:47;15.80;1.00
3794;DHT22;1912;51.358;12.282;2022-10-17T03:41:13;15.80;1.00
3794;DHT22;1912;51.358;12.282;2022-10-17T03:43:38;15.70;1.00
3794;DHT22;1912;51.358;12.282;2022-10-17T03:46:05;15.70;1.00
3794;DHT22;1912;51.358;12.282;2022-10-17T03:48:32;15.80;1.00
3794;DHT22;1912;51.358;12.282;2022-10-17T03:50:59;15.70;1.00
3794;DHT22;1912;51.358;12.282;2022-10-17T03:53:28;15.80;1.00
3794;DHT22;1912;51.358;12.282;2022-10-17T03:55:53;15.70;1.00
3794;DHT22;1912;51.358;12.282;2022-10-17T03:58:20;15.70;1.00
3794;DHT22;1912;51.358;12.282;2022-10-17T04:00:45;15.70;1.00
3794;DHT22;1912;51.358;12.282;2022-10-17T04:03:11;15.70;1.00
3794;DHT22;1912;51.358;12.282;2022-10-17T04:05:37;15.60;1.00
3794;DHT22;1912;51.358;12.282;2022-10-17T04:08:02;15.60;1.00
3794;DHT22;1912;51.358;12.282;2022-10-17T04:10:28;15.60;1.00
3794;DHT22;1912;51.358;12.282;2022-10-17T04:12:54;15.50;1.00
3794;DHT22;1912;51.358;12.282;2022-10-17T04:15:19;15.50;1.00
3794;DHT22;1912;51.358;12.282;2022-10-17T04:17:45;15.60;1.00
3794;DHT22;1912;51.358;12.282;2022-10-17T04:20:11;15.50;1.00
3794;DHT22;1912;51.358;12.282;2022-10-17T04:22:37;15.50;1.00
3794;DHT22;1912;51.358;12.282;2022-10-17T04:25:03;15.40;1.00
3794;DHT22;1912;51.358;12.282;2022-10-17T04:27:29;15.40;1.00
3794;DHT22;1912;51.358;12.282;2022-10-17T04:29:54;15.40;1.00
3794;DHT22;1912;51.358;12.282;2022-10-17T04:32:20;15.40;1.00
3794;DHT22;1912;51.358;12.282;2022-10-17T04:34:49;15.40;1.00
3794;DHT22;1912;51.358;12.282;2022-10-17T04:37:15;15.40;1.00
3794;DHT22;1912;51.358;12.282;2022-10-17T04:39:41;15.40;1.00
3794;DHT22;1912;51.358;12.282;2022-10-17T04:42:07;15.40;1.00
3794;DHT22;1912;51.358;12.282;2022-10-17T04:44:32;15.40;1.00
3794;DHT22;1912;51.358;12.282;2022-10-17T04:47:00;15.30;1.00
3794;DHT22;1912;51.358;12.282;2022-10-17T04:49:26;15.30;1.00
3794;DHT22;1912;51.358;12.282;2022-10-17T04:51:51;15.30;1.00
3794;DHT22;1912;51.358;12.282;2022-10-17T04:54:17;15.40;1.00
3794;DHT22;1912;51.358;12.282;2022-10-17T04:56:43;15.30;1.00
3794;DHT22;1912;51.358;12.282;2022-10-17T04:59:08;15.30;1.00
3794;DHT22;1912;51.358;12.282;2022-10-17T05:01:34;15.30;1.00
3794;DHT22;1912;51.358;12.282;2022-10-17T05:04:00;15.30;1.00
3794;DHT22;1912;51.358;12.282;2022-10-17T05:06:25;15.30;1.00
3794;DHT22;1912;51.358;12.282;2022-10-17T05:08:54;15.30;1.00
3794;DHT22;1912;51.358;12.282;2022-10-17T05:11:26;15.20;1.00
3794;DHT22;1912;51.358;12.282;2022-10-17T05:13:56;15.20;1.00
3794;DHT22;1912;51.358;12.282;2022-10-17T05:16:23;15.20;1.00
3794;DHT22;1912;51.358;12.282;2022-10-17T05:18:52;15.20;1.00
3794;DHT22;1912;51.358;12.282;2022-10-17T05:21:20;15.20;1.00
3794;DHT22;1912;51.358;12.282;2022-10-17T05:23:47;15.20;1.00
3794;DHT22;1912;51.358;12.282;2022-10-17T05:26:13;15.20;1.00
3794;DHT22;1912;51.358;12.282;2022-10-17T05:28:39;15.20;1.00
3794;DHT22;1912;51.358;12.282;2022-10-17T05:31:06;15.20;1.00
3794;DHT22;1912;51.358;12.282;2022-10-17T05:33:33;15.20;1.00
3794;DHT22;1912;51.358;12.282;2022-10-17T05:35:59;15.20;1.00
3794;DHT22;1912;51.358;12.282;2022-10-17T05:38:26;15.20;1.00
3794;DHT22;1912;51.358;12.282;2022-10-17T05:40:59;15.20;1.00
3794;DHT22;1912;51.358;12.282;2022-10-17T05:43:26;15.20;1.00
3794;DHT22;1912;51.358;12.282;2022-10-17T05:45:52;15.20;1.00
3794;DHT22;1912;51.358;12.282;2022-10-17T05:48:19;15.20;1.00
3794;DHT22;1912;51.358;12.282;2022-10-17T05:50:46;15.20;1.00
3794;DHT22;1912;51.358;12.282;2022-10-17T05:53:12;15.20;1.00
3794;DHT22;1912;51.358;12.282;2022-10-17T05:55:38;15.30;1.00
3794;DHT22;1912;51.358;12.282;2022-10-17T05:58:04;15.20;1.00
3794;DHT22;1912;51.358;12.282;2022-10-17T06:00:30;15.30;1.00
3794;DHT22;1912;51.358;12.282;2022-10-17T06:02:55;15.30;1.00
3794;DHT22;1912;51.358;12.282;2022-10-17T06:05:21;15.30;1.00
3794;DHT22;1912;51.358;12.282;2022-10-17T06:07:47;15.30;1.00
3794;DHT22;1912;51.358;12.282;2022-10-17T06:10:14;15.40;1.00
3794;DHT22;1912;51.358;12.282;2022-10-17T06:12:42;15.50;1.00
3794;DHT22;1912;51.358;12.282;2022-10-17T06:15:08;15.60;1.00
3794;DHT22;1912;51.358;12.282;2022-10-17T06:17:35;15.70;1.00
3794;DHT22;1912;51.358;12.282;2022-10-17T06:20:00;15.80;1.00
3794;DHT22;1912;51.358;12.282;2022-10-17T06:22:26;15.90;1.00
3794;DHT22;1912;51.358;12.282;2022-10-17T06:24:52;16.00;1.00
3794;DHT22;1912;51.358;12.282;2022-10-17T06:27:18;16.10;1.00
3794;DHT22;1912;51.358;12.282;2022-10-17T06:29:45;16.10;1.00
3794;DHT22;1912;51.358;12.282;2022-10-17T06:32:11;16.20;1.00
3794;DHT22;1912;51.358;12.282;2022-10-17T06:34:37;16.30;1.00
3794;DHT22;1912;51.358;12.282;2022-10-17T06:37:03;16.40;1.00
3794;DHT22;1912;51.358;12.282;2022-10-17T06:39:29;16.50;1.00
3794;DHT22;1912;51.358;12.282;2022-10-17T06:41:59;16.60;1.00
3794;DHT22;1912;51.358;12.282;2022-10-17T06:44:25;16.70;1.00
3794;DHT22;1912;51.358;12.282;2022-10-17T06:46:55;16.70;1.00
3794;DHT22;1912;51.358;12.282;2022-10-17T06:49:22;16.80;1.00
3794;DHT22;1912;51.358;12.282;2022-10-17T06:51:47;16.80;1.00
3794;DHT22;1912;51.358;12.282;2022-10-17T06:54:13;16.80;1.00
3794;DHT22;1912;51.358;12.282;2022-10-17T06:56:39;16.80;1.00
3794;DHT22;1912;51.358;12.282;2022-10-17T06:59:04;16.90;1.00
3794;DHT22;1912;51.358;12.282;2022-10-17T07:01:31;16.90;1.00
3794;DHT22;1912;51.358;12.282;2022-10-17T07:03:56;16.90;1.00
3794;DHT22;1912;51.358;12.282;2022-10-17T07:06:22;16.90;1.00
3794;DHT22;1912;51.358;12.282;2022-10-17T07:08:49;16.90;1.00
3794;DHT22;1912;51.358;12.282;2022-10-17T07:11:19;17.00;1.00
3794;DHT22;1912;51.358;12.282;2022-10-17T07:13:45;17.10;1.00
3794;DHT22;1912;51.358;12.282;2022-10-17T07:16:12;17.20;1.00
3794;DHT22;1912;51.358;12.282;2022-10-17T07:18:39;17.30;1.00
3794;DHT22;1912;51.358;12.282;2022-10-17T07:21:06;17.50;1.00
3794;DHT22;1912;51.358;12.282;2022-10-17T07:23:33;17.70;1.00
3794;DHT22;1912;51.358;12.282;2022-10-17T07:26:03;18.00;1.00
3794;DHT22;1912;51.358;12.282;2022-10-17T07:28:33;18.20;1.00
3794;DHT22;1912;51.358;12.282;2022-10-17T07:31:11;18.30;1.00
3794;DHT22;1912;51.358;12.282;2022-10-17T07:33:38;18.40;1.00
3794;DHT22;1912;51.358;12.282;2022-10-17T07:36:04;18.60;1.00
3794;DHT22;1912;51.358;12.282;2022-10-17T07:38:30;18.60;1.00
3794;DHT22;1912;51.358;12.282;2022-10-17T07:40:58;18.70;1.00
3794;DHT22;1912;51.358;12.282;2022-10-17T07:43:25;18.80;1.00
3794;DHT22;1912;51.358;12.282;2022-10-17T07:45:52;19.00;1.00
3794;DHT22;1912;51.358;12.282;2022-10-17T07:48:18;19.00;1.00
3794;DHT22;1912;51.358;12.282;2022-10-17T07:50:45;18.90;1.00
3794;DHT22;1912;51.358;12.282;2022-10-17T07:53:10;18.90;1.00
3794;DHT22;1912;51.358;12.282;2022-10-17T07:55:38;18.80;1.00
3794;DHT22;1912;51.358;12.282;2022-10-17T07:58:04;18.80;1.00
3794;DHT22;1912;51.358;12.282;2022-10-17T08:00:30;18.70;1.00
3794;DHT22;1912;51.358;12.282;2022-10-17T08:02:59;18.80;1.00
3794;DHT22;1912;51.358;12.282;2022-10-17T08:05:25;18.80;1.00
3794;DHT22;1912;51.358;12.282;2022-10-17T08:07:51;18.70;1.00
3794;DHT22;1912;51.358;12.282;2022-10-17T08:10:17;18.70;1.00
3794;DHT22;1912;51.358;12.282;2022-10-17T08:12:43;18.70;1.00
3794;DHT22;1912;51.358;12.282;2022-10-17T08:15:09;18.70;1.00
3794;DHT22;1912;51.358;12.282;2022-10-17T08:17:36;18.80;1.00
3794;DHT22;1912;51.358;12.282;2022-10-17T08:20:04;18.80;1.00
3794;DHT22;1912;51.358;12.282;2022-10-17T08:22:31;19.00;1.00
3794;DHT22;1912;51.358;12.282;2022-10-17T08:24:57;19.20;1.00
3794;DHT22;1912;51.358;12.282;2022-10-17T08:27:23;19.60;1.00
3794;DHT22;1912;51.358;12.282;2022-10-17T08:29:50;19.90;1.00
3794;DHT22;1912;51.358;12.282;2022-10-17T08:32:20;20.30;1.00
3794;DHT22;1912;51.358;12.282;2022-10-17T08:34:49;20.40;1.00
3794;DHT22;1912;51.358;12.282;2022-10-17T08:37:15;20.30;1.00
3794;DHT22;1912;51.358;12.282;2022-10-17T08:39:41;20.30;1.00
3794;DHT22;1912;51.358;12.282;2022-10-17T08:47:42;20.80;1.00
3794;DHT22;1912;51.358;12.282;2022-10-17T08:55:51;21.30;1.00
3794;DHT22;1912;51.358;12.282;2022-10-17T08:58:27;21.50;1.00
3794;DHT22;1912;51.358;12.282;2022-10-17T09:06:51;21.40;1.00
3794;DHT22;1912;51.358;12.282;2022-10-17T09:12:17;21.70;1.00
3794;DHT22;1912;51.358;12.282;2022-10-17T09:18:16;22.20;1.00
3794;DHT22;1912;51.358;12.282;2022-10-17T09:20:50;22.20;1.00
3794;DHT22;1912;51.358;12.282;2022-10-17T09:23:21;22.30;1.00
3794;DHT22;1912;51.358;12.282;2022-10-17T09:25:54;22.30;1.00
3794;DHT22;1912;51.358;12.282;2022-10-17T09:28:30;22.60;1.00
3794;DHT22;1912;51.358;12.282;2022-10-17T09:31:33;23.00;1.00
3794;DHT22;1912;51.358;12.282;2022-10-17T09:34:09;23.30;1.00
3794;DHT22;1912;51.358;12.282;2022-10-17T09:36:38;23.60;1.00
3794;DHT22;1912;51.358;12.282;2022-10-17T09:39:19;23.90;1.00
3794;DHT22;1912;51.358;12.282;2022-10-17T09:41:52;24.10;1.00
3794;DHT22;1912;51.358;12.282;2022-10-17T09:44:29;24.20;1.00
3794;DHT22;1912;51.358;12.282;2022-10-17T09:47:20;24.40;1.00
3794;DHT22;1912;51.358;12.282;2022-10-17T09:49:50;24.40;1.00
3794;DHT22;1912;51.358;12.282;2022-10-17T09:58:04;24.60;1.00
3794;DHT22;1912;51.358;12.282;2022-10-17T10:00:40;24.60;1.00
3794;DHT22;1912;51.358;12.282;2022-10-17T10:03:24;24.70;1.00
3794;DHT22;1912;51.358;12.282;2022-10-17T10:06:09;24.70;1.00
3794;DHT22;1912;51.358;12.282;2022-10-17T10:08:54;24.70;1.00
3794;DHT22;1912;51.358;12.282;2022-10-17T10:11:25;24.70;1.00
3794;DHT22;1912;51.358;12.282;2022-10-17T10:14:32;24.80;1.00
3794;DHT22;1912;51.358;12.282;2022-10-17T10:17:01;25.00;1.00
3794;DHT22;1912;51.358;12.282;2022-10-17T10:19:36;25.00;1.00
3794;DHT22;1912;51.358;12.282;2022-10-17T10:22:15;25.30;1.00
3794;DHT22;1912;51.358;12.282;2022-10-17T10:24:42;25.30;1.00
3794;DHT22;1912;51.358;12.282;2022-10-17T10:27:14;25.40;1.00
3794;DHT22;1912;51.358;12.282;2022-10-17T10:29:42;25.40;1.00
3794;DHT22;1912;51.358;12.282;2022-10-17T10:32:25;25.00;1.00
3794;DHT22;1912;51.358;12.282;2022-10-17T10:35:07;25.10;1.00
3794;DHT22;1912;51.358;12.282;2022-10-17T10:37:48;25.20;1.00
3794;DHT22;1912;51.358;12.282;2022-10-17T10:40:32;25.10;1.00
3794;DHT22;1912;51.358;12.282;2022-10-17T10:43:02;25.10;1.00
3794;DHT22;1912;51.358;12.282;2022-10-17T10:50:55;25.20;1.00
3794;DHT22;1912;51.358;12.282;2022-10-17T10:56:19;25.10;1.00
3794;DHT22;1912;51.358;12.282;2022-10-17T10:59:14;25.10;1.00
3794;DHT22;1912;51.358;12.282;2022-10-17T11:07:22;25.50;1.00
3794;DHT22;1912;51.358;12.282;2022-10-17T11:10:13;25.60;1.00
3794;DHT22;1912;51.358;12.282;2022-10-17T11:12:53;25.60;1.00
3794;DHT22;1912;51.358;12.282;2022-10-17T11:15:53;25.60;1.00
3794;DHT22;1912;51.358;12.282;2022-10-17T11:18:29;25.40;1.00
3794;DHT22;1912;51.358;12.282;2022-10-17T11:27:03;25.50;1.00
3794;DHT22;1912;51.358;12.282;2022-10-17T11:29:35;25.60;1.00
3794;DHT22;1912;51.358;12.282;2022-10-17T11:35:20;25.70;1.00
3794;DHT22;1912;51.358;12.282;2022-10-17T11:38:13;25.80;1.00
3794;DHT22;1912;51.358;12.282;2022-10-17T11:40:46;25.80;1.00
3794;DHT22;1912;51.358;12.282;2022-10-17T11:43:41;25.90;1.00
3794;DHT22;1912;51.358;12.282;2022-10-17T11:46:18;26.00;1.00
3794;DHT22;1912;51.358;12.282;2022-10-17T11:51:48;26.00;1.00
3794;DHT22;1912;51.358;12.282;2022-10-17T11:54:23;26.20;1.00
3794;DHT22;1912;51.358;12.282;2022-10-17T12:00:01;26.30;1.00
3794;DHT22;1912;51.358;12.282;2022-10-17T12:02:58;26.20;1.00
3794;DHT22;1912;51.358;12.282;2022-10-17T12:13:51;26.20;1.00
3794;DHT22;1912;51.358;12.282;2022-10-17T12:21:27;26.10;1.00
3794;DHT22;1912;51.358;12.282;2022-10-17T12:23:54;26.00;1.00
3794;DHT22;1912;51.358;12.282;2022-10-17T12:26:27;26.00;1.00
3794;DHT22;1912;51.358;12.282;2022-10-17T12:28:54;26.00;1.00
3794;DHT22;1912;51.358;12.282;2022-10-17T12:31:22;25.90;1.00
3794;DHT22;1912;51.358;12.282;2022-10-17T12:33:54;26.00;1.00
3794;DHT22;1912;51.358;12.282;2022-10-17T12:49:47;26.80;1.00
3794;DHT22;1912;51.358;12.282;2022-10-17T12:52:27;26.80;1.00
3794;DHT22;1912;51.358;12.282;2022-10-17T12:55:23;26.80;1.00
3794;DHT22;1912;51.358;12.282;2022-10-17T13:00:24;27.00;1.00
3794;DHT22;1912;51.358;12.282;2022-10-17T13:03:17;27.10;1.00
3794;DHT22;1912;51.358;12.282;2022-10-17T13:05:50;27.30;1.00
3794;DHT22;1912;51.358;12.282;2022-10-17T13:08:27;27.40;1.00
3794;DHT22;1912;51.358;12.282;2022-10-17T13:11:13;27.60;1.00
3794;DHT22;1912;51.358;12.282;2022-10-17T13:13:49;27.70;1.00
3794;DHT22;1912;51.358;12.282;2022-10-17T13:16:36;27.90;1.00
3794;DHT22;1912;51.358;12.282;2022-10-17T13:19:15;28.00;1.00
3794;DHT22;1912;51.358;12.282;2022-10-17T13:21:53;28.10;1.00
3794;DHT22;1912;51.358;12.282;2022-10-17T13:27:01;27.60;1.00
3794;DHT22;1912;51.358;12.282;2022-10-17T13:29:29;27.30;1.00
3794;DHT22;1912;51.358;12.282;2022-10-17T13:32:01;27.10;1.00
3794;DHT22;1912;51.358;12.282;2022-10-17T13:34:29;27.10;1.00
3794;DHT22;1912;51.358;12.282;2022-10-17T13:37:01;27.40;1.00
3794;DHT22;1912;51.358;12.282;2022-10-17T13:39:49;27.50;1.00
3794;DHT22;1912;51.358;12.282;2022-10-17T13:42:22;27.60;1.00
3794;DHT22;1912;51.358;12.282;2022-10-17T13:44:52;27.70;1.00
3794;DHT22;1912;51.358;12.282;2022-10-17T13:47:29;27.80;1.00
3794;DHT22;1912;51.358;12.282;2022-10-17T13:50:00;27.80;1.00
3794;DHT22;1912;51.358;12.282;2022-10-17T13:52:29;27.90;1.00
3794;DHT22;1912;51.358;12.282;2022-10-17T13:55:13;27.90;1.00
3794;DHT22;1912;51.358;12.282;2022-10-17T13:57:44;27.90;1.00
3794;DHT22;1912;51.358;12.282;2022-10-17T14:00:18;27.80;1.00
3794;DHT22;1912;51.358;12.282;2022-10-17T14:02:45;27.90;1.00
3794;DHT22;1912;51.358;12.282;2022-10-17T14:05:21;27.90;1.00
3794;DHT22;1912;51.358;12.282;2022-10-17T14:08:05;27.90;1.00
3794;DHT22;1912;51.358;12.282;2022-10-17T14:10:46;27.70;1.00
3794;DHT22;1912;51.358;12.282;2022-10-17T14:13:28;27.80;1.00
3794;DHT22;1912;51.358;12.282;2022-10-17T14:16:00;27.60;1.00
3794;DHT22;1912;51.358;12.282;2022-10-17T14:18:34;27.50;1.00
3794;DHT22;1912;51.358;12.282;2022-10-17T14:21:01;27.40;1.00
3794;DHT22;1912;51.358;12.282;2022-10-17T14:26:13;27.30;1.00
3794;DHT22;1912;51.358;12.282;2022-10-17T14:28:48;27.10;1.00
3794;DHT22;1912;51.358;12.282;2022-10-17T14:31:36;27.00;1.00
3794;DHT22;1912;51.358;12.282;2022-10-17T14:34:05;26.90;1.00
3794;DHT22;1912;51.358;12.282;2022-10-17T14:36:37;26.80;1.00
3794;DHT22;1912;51.358;12.282;2022-10-17T14:39:06;26.80;1.00
3794;DHT22;1912;51.358;12.282;2022-10-17T14:41:34;26.70;1.00
3794;DHT22;1912;51.358;12.282;2022-10-17T14:44:06;26.70;1.00
3794;DHT22;1912;51.358;12.282;2022-10-17T14:46:35;26.60;1.00
3794;DHT22;1912;51.358;12.282;2022-10-17T14:49:06;26.50;1.00
3794;DHT22;1912;51.358;12.282;2022-10-17T14:51:33;26.40;1.00
3794;DHT22;1912;51.358;12.282;2022-10-17T14:54:12;26.30;1.00
3794;DHT22;1912;51.358;12.282;2022-10-17T14:56:49;26.20;1.00
3794;DHT22;1912;51.358;12.282;2022-10-17T14:59:17;26.10;1.00
3794;DHT22;1912;51.358;12.282;2022-10-17T15:01:47;26.10;1.00
3794;DHT22;1912;51.358;12.282;2022-10-17T15:04:14;26.00;1.00
3794;DHT22;1912;51.358;12.282;2022-10-17T15:06:40;25.80;1.00
3794;DHT22;1912;51.358;12.282;2022-10-17T15:09:06;25.60;1.00
3794;DHT22;1912;51.358;12.282;2022-10-17T15:11:33;25.60;1.00
3794;DHT22;1912;51.358;12.282;2022-10-17T15:13:59;25.60;1.00
3794;DHT22;1912;51.358;12.282;2022-10-17T15:16:26;25.50;1.00
3794;DHT22;1912;51.358;12.282;2022-10-17T15:18:56;25.40;1.00
3794;DHT22;1912;51.358;12.282;2022-10-17T15:21:23;25.30;1.00
3794;DHT22;1912;51.358;12.282;2022-10-17T15:23:50;25.20;1.00
3794;DHT22;1912;51.358;12.282;2022-10-17T15:26:21;25.10;1.00
3794;DHT22;1912;51.358;12.282;2022-10-17T15:28:51;24.90;1.00
3794;DHT22;1912;51.358;12.282;2022-10-17T15:31:19;24.80;1.00
3794;DHT22;1912;51.358;12.282;2022-10-17T15:33:46;24.80;1.00
3794;DHT22;1912;51.358;12.282;2022-10-17T15:36:27;24.70;1.00
3794;DHT22;1912;51.358;12.282;2022-10-17T15:38:57;24.60;1.00
3794;DHT22;1912;51.358;12.282;2022-10-17T15:41:27;24.40;1.00
3794;DHT22;1912;51.358;12.282;2022-10-17T15:43:54;24.30;1.00
3794;DHT22;1912;51.358;12.282;2022-10-17T15:46:25;24.10;1.00
3794;DHT22;1912;51.358;12.282;2022-10-17T15:48:53;23.90;1.00
3794;DHT22;1912;51.358;12.282;2022-10-17T15:51:20;23.70;1.00
3794;DHT22;1912;51.358;12.282;2022-10-17T15:53:46;23.70;1.00
3794;DHT22;1912;51.358;12.282;2022-10-17T15:58:48;23.40;1.00
3794;DHT22;1912;51.358;12.282;2022-10-17T16:01:24;23.40;1.00
3794;DHT22;1912;51.358;12.282;2022-10-17T16:03:51;23.30;1.00
3794;DHT22;1912;51.358;12.282;2022-10-17T16:06:19;23.20;1.00
3794;DHT22;1912;51.358;12.282;2022-10-17T16:08:46;23.20;1.00
3794;DHT22;1912;51.358;12.282;2022-10-17T16:11:30;23.20;1.00
3794;DHT22;1912;51.358;12.282;2022-10-17T16:14:06;23.20;1.00
3794;DHT22;1912;51.358;12.282;2022-10-17T16:16:36;23.10;1.00
3794;DHT22;1912;51.358;12.282;2022-10-17T16:19:03;22.90;1.00
3794;DHT22;1912;51.358;12.282;2022-10-17T16:21:31;22.90;1.00
3794;DHT22;1912;51.358;12.282;2022-10-17T16:23:58;22.80;1.00
3794;DHT22;1912;51.358;12.282;2022-10-17T16:26:25;22.70;1.00
3794;DHT22;1912;51.358;12.282;2022-10-17T16:28:51;22.60;1.00
3794;DHT22;1912;51.358;12.282;2022-10-17T16:31:23;22.50;1.00
3794;DHT22;1912;51.358;12.282;2022-10-17T16:33:52;22.30;1.00
3794;DHT22;1912;51.358;12.282;2022-10-17T16:36:19;22.30;1.00
3794;DHT22;1912;51.358;12.282;2022-10-17T16:38:45;22.20;1.00
3794;DHT22;1912;51.358;12.282;2022-10-17T16:41:27;22.10;1.00
3794;DHT22;1912;51.358;12.282;2022-10-17T16:43:54;22.00;1.00
3794;DHT22;1912;51.358;12.282;2022-10-17T16:46:23;21.90;1.00
3794;DHT22;1912;51.358;12.282;2022-10-17T16:48:50;21.80;1.00
3794;DHT22;1912;51.358;12.282;2022-10-17T16:51:17;21.80;1.00
3794;DHT22;1912;51.358;12.282;2022-10-17T16:53:45;21.60;1.00
3794;DHT22;1912;51.358;12.282;2022-10-17T16:56:20;21.40;1.00
3794;DHT22;1912;51.358;12.282;2022-10-17T16:58:47;21.40;1.00
3794;DHT22;1912;51.358;12.282;2022-10-17T17:01:17;21.30;1.00
3794;DHT22;1912;51.358;12.282;2022-10-17T17:03:45;21.20;1.00
3794;DHT22;1912;51.358;12.282;2022-10-17T17:06:19;21.20;1.00
3794;DHT22;1912;51.358;12.282;2022-10-17T17:08:53;21.10;1.00
3794;DHT22;1912;51.358;12.282;2022-10-17T17:11:20;20.90;1.00
3794;DHT22;1912;51.358;12.282;2022-10-17T17:13:47;20.80;1.00
3794;DHT22;1912;51.358;12.282;2022-10-17T17:16:21;20.70;1.00
3794;DHT22;1912;51.358;12.282;2022-10-17T17:18:52;20.70;1.00
3794;DHT22;1912;51.358;12.282;2022-10-17T17:21:19;20.50;1.00
3794;DHT22;1912;51.358;12.282;2022-10-17T17:23:44;20.40;1.00
3794;DHT22;1912;51.358;12.282;2022-10-17T17:26:15;20.30;1.00
3794;DHT22;1912;51.358;12.282;2022-10-17T17:28:43;20.30;1.00
3794;DHT22;1912;51.358;12.282;2022-10-17T17:31:11;20.20;1.00
3794;DHT22;1912;51.358;12.282;2022-10-17T17:33:39;20.00;1.00
3794;DHT22;1912;51.358;12.282;2022-10-17T17:36:06;19.80;1.00
3794;DHT22;1912;51.358;12.282;2022-10-17T17:38:35;19.60;1.00
3794;DHT22;1912;51.358;12.282;2022-10-17T17:41:01;19.40;1.00
3794;DHT22;1912;51.358;12.282;2022-10-17T17:43:28;19.20;1.00
3794;DHT22;1912;51.358;12.282;2022-10-17T17:45:54;19.10;1.00
3794;DHT22;1912;51.358;12.282;2022-10-17T17:48:20;19.00;1.00
3794;DHT22;1912;51.358;12.282;2022-10-17T17:50:46;19.10;1.00
3794;DHT22;1912;51.358;12.282;2022-10-17T17:53:14;19.10;1.00
3794;DHT22;1912;51.358;12.282;2022-10-17T17:55:41;19.10;1.00
3794;DHT22;1912;51.358;12.282;2022-10-17T17:58:07;19.10;1.00
3794;DHT22;1912;51.358;12.282;2022-10-17T18:00:34;19.00;1.00
3794;DHT22;1912;51.358;12.282;2022-10-17T18:03:00;19.00;1.00
3794;DHT22;1912;51.358;12.282;2022-10-17T18:05:27;19.10;1.00
3794;DHT22;1912;51.358;12.282;2022-10-17T18:07:52;19.10;1.00
3794;DHT22;1912;51.358;12.282;2022-10-17T18:10:18;19.00;1.00
3794;DHT22;1912;51.358;12.282;2022-10-17T18:12:44;18.80;1.00
3794;DHT22;1912;51.358;12.282;2022-10-17T18:15:10;18.70;1.00
3794;DHT22;1912;51.358;12.282;2022-10-17T18:17:36;18.60;1.00
3794;DHT22;1912;51.358;12.282;2022-10-17T18:20:03;18.60;1.00
3794;DHT22;1912;51.358;12.282;2022-10-17T18:22:29;18.50;1.00